Wednesday, June 20, 2018, 6:38 PM EDT
Back to Local

KGED, Georgetown Sussex Co Airport

Location: Georgetown, DE, United States Lat: 38.683
Local Time: 6:38 PM EDT (22:38 GMT) Lon: -75.367
Time Zone: US/Eastern Elev: 52 ft

Show me the last for .
Show Decoded

2018-06-20 17:54 METAR KGED 202154Z AUTO 18006KT 10SM BKN060 BKN070 28/23 A2978 RMK AO2 SLP083
                 T02780228 =
2018-06-20 16:54 METAR KGED 202054Z AUTO 18010KT 10SM FEW026 FEW035 29/23 A2979 RMK AO2 SLP086
                 T02940233 58013 =
2018-06-20 15:54 METAR KGED 201954Z AUTO 15011KT 10SM CLR 29/23 A2981 RMK AO2 SLP093 T02890228 =
2018-06-20 14:54 METAR KGED 201854Z AUTO 14008KT 10SM OVC060 28/23 A2983 RMK AO2 SLP100 T02830228
                 =
2018-06-20 13:54 METAR KGED 201754Z AUTO 17009KT 10SM CLR 29/22 A2983 RMK AO2 SLP100 T02940222
                 10300 20239 58015 =
2018-06-20 12:54 METAR KGED 201654Z AUTO 11010KT 10SM FEW037 SCT050 BKN065 30/22 A2985 RMK AO2
                 SLP106 T03000222 =
2018-06-20 11:54 METAR KGED 201554Z AUTO VRB03KT 10SM FEW030 FEW041 SCT048 29/21 A2986 RMK AO2
                 SLP111 T02940211 =
2018-06-20 10:54 METAR KGED 201454Z AUTO 21005KT 10SM SCT023 SCT029 BKN037 29/22 A2987 RMK AO2
                 SLP114 T02890217 58002 =
2018-06-20 10:36 METAR KGED 201436Z AUTO VRB03KT 10SM SCT024 BKN029 28/22 A2986 RMK AO2 T02780222
                 =
2018-06-20 09:54 METAR KGED 201354Z AUTO 14003KT 9SM CLR 27/23 A2987 RMK AO2 SLP115 T02670228 =
2018-06-20 09:38 METAR KGED 201338Z AUTO 17004KT 9SM FEW013 SCT023 SCT041 26/23 A2988 RMK AO2
                 T02610228 =
2018-06-20 09:31 METAR KGED 201331Z AUTO VRB03KT 9SM FEW013 SCT022 BKN027 27/23 A2988 RMK AO2
                 T02670233 =
2018-06-20 09:01 METAR KGED 201301Z AUTO 00000KT 7SM BKN010 OVC015 26/23 A2988 RMK AO2 CIG
                 007V013 T02560228 =
2018-06-20 08:54 METAR KGED 201254Z AUTO 00000KT 7SM BKN008 OVC015 26/23 A2988 RMK AO2 CIG
                 007V011 SLP118 T02560228 =
2018-06-20 08:21 METAR KGED 201221Z AUTO 00000KT 4SM BR OVC006 24/23 A2988 RMK AO2 CIG 004V008
                 T02440228 =
2018-06-20 07:54 METAR KGED 201154Z AUTO 00000KT 3SM BR OVC004 24/23 A2988 RMK AO2 SLP116
                 T02440228 10244 20222 51006 =
2018-06-20 07:49 METAR KGED 201149Z AUTO 00000KT 3SM BR OVC004 24/22 A2988 RMK AO2 =
2018-06-20 07:42 METAR KGED 201142Z AUTO 00000KT 3SM BR OVC003 24/22 A2988 RMK AO2 T02390222 =
2018-06-20 06:54 METAR KGED 201054Z AUTO 05003KT 2SM BR OVC003 23/22 A2987 RMK AO2 SLP114
                 T02280217 =
2018-06-20 06:44 METAR KGED 201044Z AUTO 05004KT 2 1/2SM BR OVC004 23/22 A2987 RMK AO2 T02280217
                 =
2018-06-20 06:21 METAR KGED 201021Z AUTO 01004KT 3SM BR OVC004 23/22 A2987 RMK AO2 T02280217 =
2018-06-20 06:04 METAR KGED 201004Z AUTO 00000KT 3SM BR OVC005 23/22 A2987 RMK AO2 T02280217 =
2018-06-20 05:54 METAR KGED 200954Z AUTO 03003KT 3SM BR OVC003 23/22 A2986 RMK AO2 SLP110
                 T02280217 =
2018-06-20 04:54 METAR KGED 200854Z AUTO 34003KT 5SM BR OVC003 22/21 A2985 RMK AO2 SLP107
                 T02220211 53002 =
2018-06-20 04:42 METAR KGED 200842Z AUTO 34004KT 7SM OVC003 23/21 A2985 RMK AO2 T02280211 =
2018-06-20 04:14 METAR KGED 200814Z AUTO 00000KT 8SM OVC004 23/22 A2984 RMK AO2 T02280217 =
2018-06-20 03:54 METAR KGED 200754Z AUTO 00000KT 8SM BKN005 22/22 A2985 RMK AO2 SLP106 T02220217
                 =
2018-06-20 03:45 METAR KGED 200745Z AUTO 00000KT 8SM SCT005 BKN060 22/21 A2984 RMK AO2 T02220211
                 =
2018-06-20 02:54 METAR KGED 200654Z AUTO 00000KT 10SM OVC050 23/22 A2984 RMK AO2 SLP105 T02280217
                 =
2018-06-20 01:54 METAR KGED 200554Z AUTO 07003KT 10SM CLR 23/22 A2984 RMK AO2 SLP105 T02280217
                 10283 20228 56004 =
2018-06-20 00:54 METAR KGED 200454Z AUTO 00000KT 10SM CLR 24/21 A2985 RMK AO2 SLP105 T02390211
                 403280233 =
2018-06-19 23:54 METAR KGED 200354Z AUTO 00000KT 10SM CLR 24/22 A2985 RMK AO2 SLP107 T02440217 =
2018-06-19 22:54 METAR KGED 200254Z AUTO 00000KT 10SM SCT045 SCT050 27/22 A2986 RMK AO2 SLP109
                 T02670217 51008 =
2018-06-19 21:54 METAR KGED 200154Z AUTO 00000KT 10SM BKN046 OVC055 26/22 A2985 RMK AO2 SLP109
                 T02610222 =
2018-06-19 20:54 METAR KGED 200054Z AUTO 00000KT 10SM FEW039 OVC070 28/22 A2984 RMK AO2 SLP103
                 T02830217 =
2018-06-19 19:54 METAR KGED 192354Z AUTO 00000KT 10SM OVC070 28/23 A2983 RMK AO2 SLP100 T02830228
                 10317 20278 53010 =
2018-06-19 18:54 METAR KGED 192254Z AUTO 01003KT 10SM FEW055 29/23 A2981 RMK AO2 SLP094 T02890228
                 =

Support USWX by starting your Amazon purchase here.